sensor_id;sensor_type;location;lat;lon;timestamp;temperature;humidity
19906;DHT22;10115;50.906;4.438;2023-07-31T00:01:13;16.50;99.90
19906;DHT22;10115;50.906;4.438;2023-07-31T00:03:39;16.60;99.90
19906;DHT22;10115;50.906;4.438;2023-07-31T00:06:05;16.60;99.90
19906;DHT22;10115;50.906;4.438;2023-07-31T00:08:31;16.60;99.90
19906;DHT22;10115;50.906;4.438;2023-07-31T00:10:56;16.60;99.90
19906;DHT22;10115;50.906;4.438;2023-07-31T00:13:22;16.60;99.90
19906;DHT22;10115;50.906;4.438;2023-07-31T00:15:48;16.60;99.90
19906;DHT22;10115;50.906;4.438;2023-07-31T00:18:14;16.70;99.90
19906;DHT22;10115;50.906;4.438;2023-07-31T00:20:40;16.60;99.90
19906;DHT22;10115;50.906;4.438;2023-07-31T00:23:06;16.70;99.90
19906;DHT22;10115;50.906;4.438;2023-07-31T00:25:32;16.70;99.90
19906;DHT22;10115;50.906;4.438;2023-07-31T00:27:57;16.70;99.90
19906;DHT22;10115;50.906;4.438;2023-07-31T00:30:24;16.80;99.90
19906;DHT22;10115;50.906;4.438;2023-07-31T00:32:50;16.80;99.90
19906;DHT22;10115;50.906;4.438;2023-07-31T00:35:16;16.80;99.90
19906;DHT22;10115;50.906;4.438;2023-07-31T00:37:42;16.80;99.90
19906;DHT22;10115;50.906;4.438;2023-07-31T00:40:08;16.80;99.90
19906;DHT22;10115;50.906;4.438;2023-07-31T00:42:34;16.90;99.90
19906;DHT22;10115;50.906;4.438;2023-07-31T00:45:00;16.90;99.90
19906;DHT22;10115;50.906;4.438;2023-07-31T00:47:26;16.90;99.90
19906;DHT22;10115;50.906;4.438;2023-07-31T00:49:52;16.90;99.90
19906;DHT22;10115;50.906;4.438;2023-07-31T00:52:18;16.90;99.90
19906;DHT22;10115;50.906;4.438;2023-07-31T00:54:44;16.90;99.90
19906;DHT22;10115;50.906;4.438;2023-07-31T00:57:10;17.00;99.90
19906;DHT22;10115;50.906;4.438;2023-07-31T00:59:36;17.00;99.90
19906;DHT22;10115;50.906;4.438;2023-07-31T01:02:02;17.00;99.90
19906;DHT22;10115;50.906;4.438;2023-07-31T01:04:29;17.00;99.90
19906;DHT22;10115;50.906;4.438;2023-07-31T01:10:03;17.00;99.90
19906;DHT22;10115;50.906;4.438;2023-07-31T01:12:30;17.00;99.90
19906;DHT22;10115;50.906;4.438;2023-07-31T01:15:07;17.00;99.90
19906;DHT22;10115;50.906;4.438;2023-07-31T01:17:39;17.00;99.90
19906;DHT22;10115;50.906;4.438;2023-07-31T01:20:14;17.00;99.90
19906;DHT22;10115;50.906;4.438;2023-07-31T01:22:54;17.00;99.90
19906;DHT22;10115;50.906;4.438;2023-07-31T01:28:13;16.90;99.90
19906;DHT22;10115;50.906;4.438;2023-07-31T01:30:44;16.90;99.90
19906;DHT22;10115;50.906;4.438;2023-07-31T01:33:11;16.90;99.90
19906;DHT22;10115;50.906;4.438;2023-07-31T01:35:37;17.00;99.90
19906;DHT22;10115;50.906;4.438;2023-07-31T01:38:05;17.00;99.90
19906;DHT22;10115;50.906;4.438;2023-07-31T01:40:31;17.00;99.90
19906;DHT22;10115;50.906;4.438;2023-07-31T01:42:56;17.00;99.90
19906;DHT22;10115;50.906;4.438;2023-07-31T01:45:22;17.00;99.90
19906;DHT22;10115;50.906;4.438;2023-07-31T01:47:48;17.00;99.90
19906;DHT22;10115;50.906;4.438;2023-07-31T01:50:13;17.00;99.90
19906;DHT22;10115;50.906;4.438;2023-07-31T01:52:39;17.10;99.90
19906;DHT22;10115;50.906;4.438;2023-07-31T01:55:05;17.00;99.90
19906;DHT22;10115;50.906;4.438;2023-07-31T01:57:31;17.00;99.90
19906;DHT22;10115;50.906;4.438;2023-07-31T01:59:58;17.10;99.90
19906;DHT22;10115;50.906;4.438;2023-07-31T02:02:24;17.10;99.90
19906;DHT22;10115;50.906;4.438;2023-07-31T02:04:50;17.10;99.90
19906;DHT22;10115;50.906;4.438;2023-07-31T02:07:15;17.10;99.90
19906;DHT22;10115;50.906;4.438;2023-07-31T02:09:41;17.10;99.90
19906;DHT22;10115;50.906;4.438;2023-07-31T02:12:07;17.10;99.90
19906;DHT22;10115;50.906;4.438;2023-07-31T02:14:36;17.10;99.90
19906;DHT22;10115;50.906;4.438;2023-07-31T02:17:02;17.10;99.90
19906;DHT22;10115;50.906;4.438;2023-07-31T02:19:28;17.10;99.90
19906;DHT22;10115;50.906;4.438;2023-07-31T02:21:53;17.10;99.90
19906;DHT22;10115;50.906;4.438;2023-07-31T02:24:19;17.10;99.90
19906;DHT22;10115;50.906;4.438;2023-07-31T02:26:45;17.10;99.90
19906;DHT22;10115;50.906;4.438;2023-07-31T02:29:11;17.10;99.90
19906;DHT22;10115;50.906;4.438;2023-07-31T02:31:37;17.10;99.90
19906;DHT22;10115;50.906;4.438;2023-07-31T02:34:03;17.10;99.90
19906;DHT22;10115;50.906;4.438;2023-07-31T02:36:28;17.20;99.90
19906;DHT22;10115;50.906;4.438;2023-07-31T02:38:54;17.10;99.90
19906;DHT22;10115;50.906;4.438;2023-07-31T02:41:20;17.10;99.90
19906;DHT22;10115;50.906;4.438;2023-07-31T02:43:46;17.20;99.90
19906;DHT22;10115;50.906;4.438;2023-07-31T02:46:12;17.10;99.90
19906;DHT22;10115;50.906;4.438;2023-07-31T02:48:37;17.20;99.90
19906;DHT22;10115;50.906;4.438;2023-07-31T02:51:03;17.10;99.90
19906;DHT22;10115;50.906;4.438;2023-07-31T02:53:29;17.10;99.90
19906;DHT22;10115;50.906;4.438;2023-07-31T02:55:54;17.20;99.90
19906;DHT22;10115;50.906;4.438;2023-07-31T02:58:20;17.20;99.90
19906;DHT22;10115;50.906;4.438;2023-07-31T03:00:46;17.10;99.90
19906;DHT22;10115;50.906;4.438;2023-07-31T03:03:11;17.20;99.90
19906;DHT22;10115;50.906;4.438;2023-07-31T03:05:37;17.20;99.90
19906;DHT22;10115;50.906;4.438;2023-07-31T03:08:03;17.10;99.90
19906;DHT22;10115;50.906;4.438;2023-07-31T03:10:29;17.10;99.90
19906;DHT22;10115;50.906;4.438;2023-07-31T03:12:55;17.00;99.90
19906;DHT22;10115;50.906;4.438;2023-07-31T03:15:20;17.00;99.90
19906;DHT22;10115;50.906;4.438;2023-07-31T03:17:46;16.90;99.90
19906;DHT22;10115;50.906;4.438;2023-07-31T03:20:12;16.90;99.90
19906;DHT22;10115;50.906;4.438;2023-07-31T03:22:37;16.90;99.90
19906;DHT22;10115;50.906;4.438;2023-07-31T03:25:03;16.90;99.90
19906;DHT22;10115;50.906;4.438;2023-07-31T03:27:29;16.90;99.90
19906;DHT22;10115;50.906;4.438;2023-07-31T03:29:55;16.90;99.90
19906;DHT22;10115;50.906;4.438;2023-07-31T03:32:20;16.90;99.90
19906;DHT22;10115;50.906;4.438;2023-07-31T03:34:46;16.80;99.90
19906;DHT22;10115;50.906;4.438;2023-07-31T03:37:12;16.80;99.90
19906;DHT22;10115;50.906;4.438;2023-07-31T03:39:38;16.80;99.90
19906;DHT22;10115;50.906;4.438;2023-07-31T03:42:03;16.80;99.90
19906;DHT22;10115;50.906;4.438;2023-07-31T03:44:29;16.80;99.90
19906;DHT22;10115;50.906;4.438;2023-07-31T03:46:55;16.80;99.90
19906;DHT22;10115;50.906;4.438;2023-07-31T03:49:20;16.80;99.90
19906;DHT22;10115;50.906;4.438;2023-07-31T03:51:46;16.70;99.90
19906;DHT22;10115;50.906;4.438;2023-07-31T03:54:12;16.70;99.90
19906;DHT22;10115;50.906;4.438;2023-07-31T03:56:38;16.60;99.90
19906;DHT22;10115;50.906;4.438;2023-07-31T03:59:04;16.50;99.90
19906;DHT22;10115;50.906;4.438;2023-07-31T04:01:30;16.50;99.90
19906;DHT22;10115;50.906;4.438;2023-07-31T04:03:56;16.50;99.90
19906;DHT22;10115;50.906;4.438;2023-07-31T04:06:21;16.50;99.90
19906;DHT22;10115;50.906;4.438;2023-07-31T04:08:47;16.50;99.90
19906;DHT22;10115;50.906;4.438;2023-07-31T04:11:13;16.50;99.90
19906;DHT22;10115;50.906;4.438;2023-07-31T04:13:38;16.50;99.90
19906;DHT22;10115;50.906;4.438;2023-07-31T04:16:04;16.40;99.90
19906;DHT22;10115;50.906;4.438;2023-07-31T04:18:31;16.40;99.90
19906;DHT22;10115;50.906;4.438;2023-07-31T04:20:58;16.50;99.90
19906;DHT22;10115;50.906;4.438;2023-07-31T04:23:24;16.50;99.90
19906;DHT22;10115;50.906;4.438;2023-07-31T04:25:50;16.40;99.90
19906;DHT22;10115;50.906;4.438;2023-07-31T04:28:16;16.40;99.90
19906;DHT22;10115;50.906;4.438;2023-07-31T04:30:41;16.40;99.90
19906;DHT22;10115;50.906;4.438;2023-07-31T04:33:07;16.40;99.90
19906;DHT22;10115;50.906;4.438;2023-07-31T04:35:33;16.40;99.90
19906;DHT22;10115;50.906;4.438;2023-07-31T04:37:59;16.40;99.90
19906;DHT22;10115;50.906;4.438;2023-07-31T04:40:24;16.40;99.90
19906;DHT22;10115;50.906;4.438;2023-07-31T04:42:50;16.40;99.90
19906;DHT22;10115;50.906;4.438;2023-07-31T04:45:15;16.40;99.90
19906;DHT22;10115;50.906;4.438;2023-07-31T04:47:41;16.50;99.90
19906;DHT22;10115;50.906;4.438;2023-07-31T04:50:07;16.50;99.90
19906;DHT22;10115;50.906;4.438;2023-07-31T04:52:33;16.50;99.90
19906;DHT22;10115;50.906;4.438;2023-07-31T04:54:58;16.60;99.90
19906;DHT22;10115;50.906;4.438;2023-07-31T04:57:24;16.60;99.90
19906;DHT22;10115;50.906;4.438;2023-07-31T04:59:50;16.60;99.90
19906;DHT22;10115;50.906;4.438;2023-07-31T05:02:15;16.60;99.90
19906;DHT22;10115;50.906;4.438;2023-07-31T05:04:41;16.60;99.90
19906;DHT22;10115;50.906;4.438;2023-07-31T05:07:06;16.60;99.90
19906;DHT22;10115;50.906;4.438;2023-07-31T05:09:32;16.50;99.90
19906;DHT22;10115;50.906;4.438;2023-07-31T05:11:58;16.60;99.90
19906;DHT22;10115;50.906;4.438;2023-07-31T05:14:23;16.50;99.90
19906;DHT22;10115;50.906;4.438;2023-07-31T05:16:49;16.50;99.90
19906;DHT22;10115;50.906;4.438;2023-07-31T05:19:15;16.40;99.90
19906;DHT22;10115;50.906;4.438;2023-07-31T05:21:40;16.40;99.90
19906;DHT22;10115;50.906;4.438;2023-07-31T05:24:06;16.40;99.90
19906;DHT22;10115;50.906;4.438;2023-07-31T05:26:32;16.40;99.90
19906;DHT22;10115;50.906;4.438;2023-07-31T05:28:57;16.30;99.90
19906;DHT22;10115;50.906;4.438;2023-07-31T05:31:23;16.30;99.90
19906;DHT22;10115;50.906;4.438;2023-07-31T05:33:50;16.20;99.90
19906;DHT22;10115;50.906;4.438;2023-07-31T05:36:16;16.20;99.90
19906;DHT22;10115;50.906;4.438;2023-07-31T05:38:42;16.20;99.90
19906;DHT22;10115;50.906;4.438;2023-07-31T05:41:11;16.20;99.90
19906;DHT22;10115;50.906;4.438;2023-07-31T05:43:36;16.20;99.90
19906;DHT22;10115;50.906;4.438;2023-07-31T05:46:02;16.20;99.90
19906;DHT22;10115;50.906;4.438;2023-07-31T05:48:28;16.20;99.90
19906;DHT22;10115;50.906;4.438;2023-07-31T05:50:53;16.20;99.90
19906;DHT22;10115;50.906;4.438;2023-07-31T05:53:19;16.20;99.90
19906;DHT22;10115;50.906;4.438;2023-07-31T05:55:45;16.20;99.90
19906;DHT22;10115;50.906;4.438;2023-07-31T05:58:10;16.20;99.90
19906;DHT22;10115;50.906;4.438;2023-07-31T06:00:36;16.20;99.90
19906;DHT22;10115;50.906;4.438;2023-07-31T06:03:02;16.30;99.90
19906;DHT22;10115;50.906;4.438;2023-07-31T06:05:27;16.30;99.90
19906;DHT22;10115;50.906;4.438;2023-07-31T06:07:55;16.30;99.90
19906;DHT22;10115;50.906;4.438;2023-07-31T06:10:21;16.30;99.90
19906;DHT22;10115;50.906;4.438;2023-07-31T06:12:47;16.30;99.90
19906;DHT22;10115;50.906;4.438;2023-07-31T06:15:13;16.30;99.90
19906;DHT22;10115;50.906;4.438;2023-07-31T06:17:38;16.40;99.90
19906;DHT22;10115;50.906;4.438;2023-07-31T06:20:05;16.40;99.90
19906;DHT22;10115;50.906;4.438;2023-07-31T06:22:31;16.40;99.90
19906;DHT22;10115;50.906;4.438;2023-07-31T06:24:57;16.40;99.90
19906;DHT22;10115;50.906;4.438;2023-07-31T06:27:23;16.40;99.90
19906;DHT22;10115;50.906;4.438;2023-07-31T06:29:49;16.50;99.90
19906;DHT22;10115;50.906;4.438;2023-07-31T06:32:14;16.50;99.90
19906;DHT22;10115;50.906;4.438;2023-07-31T06:34:40;16.50;99.90
19906;DHT22;10115;50.906;4.438;2023-07-31T06:37:06;16.60;99.90
19906;DHT22;10115;50.906;4.438;2023-07-31T06:39:31;16.60;99.90
19906;DHT22;10115;50.906;4.438;2023-07-31T06:41:57;16.70;99.90
19906;DHT22;10115;50.906;4.438;2023-07-31T06:44:23;16.80;99.90
19906;DHT22;10115;50.906;4.438;2023-07-31T06:46:48;16.70;99.90
19906;DHT22;10115;50.906;4.438;2023-07-31T06:49:14;16.80;99.90
19906;DHT22;10115;50.906;4.438;2023-07-31T06:51:43;16.80;99.90
19906;DHT22;10115;50.906;4.438;2023-07-31T06:54:09;16.80;99.90
19906;DHT22;10115;50.906;4.438;2023-07-31T06:56:35;16.90;99.90
19906;DHT22;10115;50.906;4.438;2023-07-31T06:59:01;17.00;99.90
19906;DHT22;10115;50.906;4.438;2023-07-31T07:01:26;17.20;99.90
19906;DHT22;10115;50.906;4.438;2023-07-31T07:03:54;17.20;99.90
19906;DHT22;10115;50.906;4.438;2023-07-31T07:06:19;17.30;99.90
19906;DHT22;10115;50.906;4.438;2023-07-31T07:08:45;17.30;99.90
19906;DHT22;10115;50.906;4.438;2023-07-31T07:11:11;17.30;99.90
19906;DHT22;10115;50.906;4.438;2023-07-31T07:13:36;17.30;99.90
19906;DHT22;10115;50.906;4.438;2023-07-31T07:16:02;17.30;99.90
19906;DHT22;10115;50.906;4.438;2023-07-31T07:18:28;17.50;99.90
19906;DHT22;10115;50.906;4.438;2023-07-31T07:20:54;17.50;99.90
19906;DHT22;10115;50.906;4.438;2023-07-31T07:23:20;17.50;99.90
19906;DHT22;10115;50.906;4.438;2023-07-31T07:25:47;17.50;99.90
19906;DHT22;10115;50.906;4.438;2023-07-31T07:28:13;17.60;99.90
19906;DHT22;10115;50.906;4.438;2023-07-31T07:30:39;17.60;99.90
19906;DHT22;10115;50.906;4.438;2023-07-31T07:33:05;17.50;99.90
19906;DHT22;10115;50.906;4.438;2023-07-31T07:35:33;17.40;99.90
19906;DHT22;10115;50.906;4.438;2023-07-31T07:38:00;17.40;99.90
19906;DHT22;10115;50.906;4.438;2023-07-31T07:40:26;17.40;99.90
19906;DHT22;10115;50.906;4.438;2023-07-31T07:42:51;17.40;99.90
19906;DHT22;10115;50.906;4.438;2023-07-31T07:45:17;17.50;99.90
19906;DHT22;10115;50.906;4.438;2023-07-31T07:47:43;17.50;99.90
19906;DHT22;10115;50.906;4.438;2023-07-31T07:50:09;17.40;99.90
19906;DHT22;10115;50.906;4.438;2023-07-31T07:52:34;17.60;99.90
19906;DHT22;10115;50.906;4.438;2023-07-31T07:55:00;17.60;99.90
19906;DHT22;10115;50.906;4.438;2023-07-31T07:57:26;17.60;99.90
19906;DHT22;10115;50.906;4.438;2023-07-31T07:59:52;17.60;99.90
19906;DHT22;10115;50.906;4.438;2023-07-31T08:02:17;17.60;99.90
19906;DHT22;10115;50.906;4.438;2023-07-31T08:04:43;17.60;99.90
19906;DHT22;10115;50.906;4.438;2023-07-31T08:07:11;17.70;99.90
19906;DHT22;10115;50.906;4.438;2023-07-31T08:09:37;17.60;99.90
19906;DHT22;10115;50.906;4.438;2023-07-31T08:12:04;17.70;99.90
19906;DHT22;10115;50.906;4.438;2023-07-31T08:14:30;17.70;99.90
19906;DHT22;10115;50.906;4.438;2023-07-31T08:16:56;17.80;99.90
19906;DHT22;10115;50.906;4.438;2023-07-31T08:19:21;17.90;99.90
19906;DHT22;10115;50.906;4.438;2023-07-31T08:21:47;17.90;99.90
19906;DHT22;10115;50.906;4.438;2023-07-31T08:24:13;17.90;99.90
19906;DHT22;10115;50.906;4.438;2023-07-31T08:26:38;17.80;99.90
19906;DHT22;10115;50.906;4.438;2023-07-31T08:29:04;17.70;99.90
19906;DHT22;10115;50.906;4.438;2023-07-31T08:31:29;17.60;99.90
19906;DHT22;10115;50.906;4.438;2023-07-31T08:33:56;17.50;99.90
19906;DHT22;10115;50.906;4.438;2023-07-31T08:36:22;17.50;99.90
19906;DHT22;10115;50.906;4.438;2023-07-31T08:38:47;17.40;99.90
19906;DHT22;10115;50.906;4.438;2023-07-31T08:41:13;17.60;99.90
19906;DHT22;10115;50.906;4.438;2023-07-31T08:43:39;17.70;99.90
19906;DHT22;10115;50.906;4.438;2023-07-31T08:46:06;17.60;99.90
19906;DHT22;10115;50.906;4.438;2023-07-31T08:48:32;17.50;99.90
19906;DHT22;10115;50.906;4.438;2023-07-31T08:50:58;17.40;99.90
19906;DHT22;10115;50.906;4.438;2023-07-31T08:53:24;17.50;99.90
19906;DHT22;10115;50.906;4.438;2023-07-31T08:55:50;17.50;99.90
19906;DHT22;10115;50.906;4.438;2023-07-31T08:58:18;17.60;99.90
19906;DHT22;10115;50.906;4.438;2023-07-31T09:00:46;17.70;99.90
19906;DHT22;10115;50.906;4.438;2023-07-31T09:03:17;17.60;99.90
19906;DHT22;10115;50.906;4.438;2023-07-31T09:05:46;17.40;99.90
19906;DHT22;10115;50.906;4.438;2023-07-31T09:08:13;17.40;99.90
19906;DHT22;10115;50.906;4.438;2023-07-31T09:10:43;17.40;99.90
19906;DHT22;10115;50.906;4.438;2023-07-31T09:13:09;17.60;99.90
19906;DHT22;10115;50.906;4.438;2023-07-31T09:15:36;17.70;99.90
19906;DHT22;10115;50.906;4.438;2023-07-31T09:18:04;17.80;99.90
19906;DHT22;10115;50.906;4.438;2023-07-31T09:20:30;17.80;99.90
19906;DHT22;10115;50.906;4.438;2023-07-31T09:23:11;17.70;99.90
19906;DHT22;10115;50.906;4.438;2023-07-31T09:25:39;17.80;99.90
19906;DHT22;10115;50.906;4.438;2023-07-31T09:28:09;17.90;99.90
19906;DHT22;10115;50.906;4.438;2023-07-31T09:30:50;18.10;99.90
19906;DHT22;10115;50.906;4.438;2023-07-31T09:33:17;18.30;99.90
19906;DHT22;10115;50.906;4.438;2023-07-31T09:35:43;18.50;99.90
19906;DHT22;10115;50.906;4.438;2023-07-31T09:38:14;18.70;99.90
19906;DHT22;10115;50.906;4.438;2023-07-31T09:40:42;18.80;99.90
19906;DHT22;10115;50.906;4.438;2023-07-31T09:43:12;18.50;99.90
19906;DHT22;10115;50.906;4.438;2023-07-31T09:45:42;18.50;99.90
19906;DHT22;10115;50.906;4.438;2023-07-31T09:48:10;18.50;99.90
19906;DHT22;10115;50.906;4.438;2023-07-31T09:50:40;18.50;99.90
19906;DHT22;10115;50.906;4.438;2023-07-31T09:53:07;18.40;99.90
19906;DHT22;10115;50.906;4.438;2023-07-31T09:55:33;18.10;99.90
19906;DHT22;10115;50.906;4.438;2023-07-31T09:58:05;17.90;99.90
19906;DHT22;10115;50.906;4.438;2023-07-31T10:00:31;17.90;99.90
19906;DHT22;10115;50.906;4.438;2023-07-31T10:03:02;17.70;99.90
19906;DHT22;10115;50.906;4.438;2023-07-31T10:05:34;17.60;99.90
19906;DHT22;10115;50.906;4.438;2023-07-31T10:08:00;17.60;99.90
19906;DHT22;10115;50.906;4.438;2023-07-31T10:10:27;17.60;99.90
19906;DHT22;10115;50.906;4.438;2023-07-31T10:12:54;17.40;99.90
19906;DHT22;10115;50.906;4.438;2023-07-31T10:15:20;17.40;99.90
19906;DHT22;10115;50.906;4.438;2023-07-31T10:17:49;17.40;99.90
19906;DHT22;10115;50.906;4.438;2023-07-31T10:20:16;17.50;99.90
19906;DHT22;10115;50.906;4.438;2023-07-31T10:22:42;17.70;99.90
19906;DHT22;10115;50.906;4.438;2023-07-31T10:25:09;17.90;99.90
19906;DHT22;10115;50.906;4.438;2023-07-31T10:27:36;18.00;99.90
19906;DHT22;10115;50.906;4.438;2023-07-31T10:30:05;18.00;99.90
19906;DHT22;10115;50.906;4.438;2023-07-31T10:32:31;18.20;99.90
19906;DHT22;10115;50.906;4.438;2023-07-31T10:34:58;18.20;99.90
19906;DHT22;10115;50.906;4.438;2023-07-31T10:37:25;18.20;99.90
19906;DHT22;10115;50.906;4.438;2023-07-31T10:42:37;18.30;99.90
19906;DHT22;10115;50.906;4.438;2023-07-31T10:45:08;18.50;99.90
19906;DHT22;10115;50.906;4.438;2023-07-31T10:47:44;18.40;99.90
19906;DHT22;10115;50.906;4.438;2023-07-31T10:50:19;18.50;99.90
19906;DHT22;10115;50.906;4.438;2023-07-31T10:52:53;18.70;99.90
19906;DHT22;10115;50.906;4.438;2023-07-31T10:55:46;18.70;99.90
19906;DHT22;10115;50.906;4.438;2023-07-31T10:58:13;18.80;99.90
19906;DHT22;10115;50.906;4.438;2023-07-31T11:00:41;19.00;99.90
19906;DHT22;10115;50.906;4.438;2023-07-31T11:03:09;19.10;99.90
19906;DHT22;10115;50.906;4.438;2023-07-31T11:08:17;19.20;99.90
19906;DHT22;10115;50.906;4.438;2023-07-31T11:10:44;19.30;99.90
19906;DHT22;10115;50.906;4.438;2023-07-31T11:13:10;19.10;99.90
19906;DHT22;10115;50.906;4.438;2023-07-31T11:15:36;19.10;99.90
19906;DHT22;10115;50.906;4.438;2023-07-31T11:18:02;19.10;99.90
19906;DHT22;10115;50.906;4.438;2023-07-31T11:20:32;19.40;99.90
19906;DHT22;10115;50.906;4.438;2023-07-31T11:23:06;19.50;99.90
19906;DHT22;10115;50.906;4.438;2023-07-31T11:25:33;19.50;99.90
19906;DHT22;10115;50.906;4.438;2023-07-31T11:28:12;19.50;99.90
19906;DHT22;10115;50.906;4.438;2023-07-31T11:30:39;19.50;99.90
19906;DHT22;10115;50.906;4.438;2023-07-31T11:33:06;19.60;99.90
19906;DHT22;10115;50.906;4.438;2023-07-31T11:35:33;19.70;99.90
19906;DHT22;10115;50.906;4.438;2023-07-31T11:38:00;19.70;99.90
19906;DHT22;10115;50.906;4.438;2023-07-31T11:40:26;19.60;99.90
19906;DHT22;10115;50.906;4.438;2023-07-31T11:43:04;19.60;99.90
19906;DHT22;10115;50.906;4.438;2023-07-31T11:45:30;19.40;99.90
19906;DHT22;10115;50.906;4.438;2023-07-31T11:47:56;19.30;99.90
19906;DHT22;10115;50.906;4.438;2023-07-31T11:50:23;19.10;99.90
19906;DHT22;10115;50.906;4.438;2023-07-31T11:53:00;19.10;99.90
19906;DHT22;10115;50.906;4.438;2023-07-31T11:55:27;19.20;99.90
19906;DHT22;10115;50.906;4.438;2023-07-31T11:57:54;19.20;99.90
19906;DHT22;10115;50.906;4.438;2023-07-31T12:00:21;19.10;99.90
19906;DHT22;10115;50.906;4.438;2023-07-31T12:02:47;19.20;99.90
19906;DHT22;10115;50.906;4.438;2023-07-31T12:05:13;19.20;99.90
19906;DHT22;10115;50.906;4.438;2023-07-31T12:07:47;19.30;99.90
19906;DHT22;10115;50.906;4.438;2023-07-31T12:10:27;19.50;99.90
19906;DHT22;10115;50.906;4.438;2023-07-31T12:13:08;19.60;99.90
19906;DHT22;10115;50.906;4.438;2023-07-31T12:15:41;19.70;99.90
19906;DHT22;10115;50.906;4.438;2023-07-31T12:18:12;19.60;99.90
19906;DHT22;10115;50.906;4.438;2023-07-31T12:20:46;19.50;99.90
19906;DHT22;10115;50.906;4.438;2023-07-31T12:23:18;19.60;99.90
19906;DHT22;10115;50.906;4.438;2023-07-31T12:25:44;19.70;99.90
19906;DHT22;10115;50.906;4.438;2023-07-31T12:28:09;19.60;99.90
19906;DHT22;10115;50.906;4.438;2023-07-31T12:30:40;19.60;99.90
19906;DHT22;10115;50.906;4.438;2023-07-31T12:33:15;19.80;99.90
19906;DHT22;10115;50.906;4.438;2023-07-31T12:35:44;20.10;99.90
19906;DHT22;10115;50.906;4.438;2023-07-31T12:38:11;20.10;99.90
19906;DHT22;10115;50.906;4.438;2023-07-31T12:40:38;20.20;99.90
19906;DHT22;10115;50.906;4.438;2023-07-31T12:43:04;20.30;99.90
19906;DHT22;10115;50.906;4.438;2023-07-31T12:45:31;20.40;99.90
19906;DHT22;10115;50.906;4.438;2023-07-31T12:48:00;20.50;99.90
19906;DHT22;10115;50.906;4.438;2023-07-31T12:50:26;20.30;99.90
19906;DHT22;10115;50.906;4.438;2023-07-31T12:52:54;20.30;99.90
19906;DHT22;10115;50.906;4.438;2023-07-31T12:55:21;20.40;99.90
19906;DHT22;10115;50.906;4.438;2023-07-31T12:57:46;20.40;99.90
19906;DHT22;10115;50.906;4.438;2023-07-31T13:00:13;20.30;99.90
19906;DHT22;10115;50.906;4.438;2023-07-31T13:02:39;20.40;99.90
19906;DHT22;10115;50.906;4.438;2023-07-31T13:05:04;20.20;99.90
19906;DHT22;10115;50.906;4.438;2023-07-31T13:07:30;20.20;99.90
19906;DHT22;10115;50.906;4.438;2023-07-31T13:09:56;20.00;99.90
19906;DHT22;10115;50.906;4.438;2023-07-31T13:12:22;19.80;99.90
19906;DHT22;10115;50.906;4.438;2023-07-31T13:14:47;19.80;99.90
19906;DHT22;10115;50.906;4.438;2023-07-31T13:17:13;19.60;99.90
19906;DHT22;10115;50.906;4.438;2023-07-31T13:19:39;19.60;99.90
19906;DHT22;10115;50.906;4.438;2023-07-31T13:22:04;19.60;99.90
19906;DHT22;10115;50.906;4.438;2023-07-31T13:24:30;19.40;99.90
19906;DHT22;10115;50.906;4.438;2023-07-31T13:26:56;19.30;99.90
19906;DHT22;10115;50.906;4.438;2023-07-31T13:29:22;19.10;99.90
19906;DHT22;10115;50.906;4.438;2023-07-31T13:31:48;18.70;99.90
19906;DHT22;10115;50.906;4.438;2023-07-31T13:34:13;18.50;99.90
19906;DHT22;10115;50.906;4.438;2023-07-31T13:36:39;18.30;99.90
19906;DHT22;10115;50.906;4.438;2023-07-31T13:39:04;18.20;99.90
19906;DHT22;10115;50.906;4.438;2023-07-31T13:41:30;18.10;99.90
19906;DHT22;10115;50.906;4.438;2023-07-31T13:43:56;18.10;99.90
19906;DHT22;10115;50.906;4.438;2023-07-31T13:46:22;18.20;99.90
19906;DHT22;10115;50.906;4.438;2023-07-31T13:48:47;18.30;99.90
19906;DHT22;10115;50.906;4.438;2023-07-31T13:51:13;18.30;99.90
19906;DHT22;10115;50.906;4.438;2023-07-31T13:53:38;18.30;99.90
19906;DHT22;10115;50.906;4.438;2023-07-31T13:56:04;18.40;99.90
19906;DHT22;10115;50.906;4.438;2023-07-31T13:58:30;18.30;99.90
19906;DHT22;10115;50.906;4.438;2023-07-31T14:00:55;18.10;99.90
19906;DHT22;10115;50.906;4.438;2023-07-31T14:03:21;18.00;99.90
19906;DHT22;10115;50.906;4.438;2023-07-31T14:05:47;18.00;99.90
19906;DHT22;10115;50.906;4.438;2023-07-31T14:08:12;17.90;99.90
19906;DHT22;10115;50.906;4.438;2023-07-31T14:10:38;18.00;99.90
19906;DHT22;10115;50.906;4.438;2023-07-31T14:13:03;18.00;99.90
19906;DHT22;10115;50.906;4.438;2023-07-31T14:15:29;18.00;99.90
19906;DHT22;10115;50.906;4.438;2023-07-31T14:17:55;17.90;99.90
19906;DHT22;10115;50.906;4.438;2023-07-31T14:20:20;17.90;99.90
19906;DHT22;10115;50.906;4.438;2023-07-31T14:22:46;17.80;99.90
19906;DHT22;10115;50.906;4.438;2023-07-31T14:25:11;17.90;99.90
19906;DHT22;10115;50.906;4.438;2023-07-31T14:27:37;17.90;99.90
19906;DHT22;10115;50.906;4.438;2023-07-31T14:30:03;17.90;99.90
19906;DHT22;10115;50.906;4.438;2023-07-31T14:32:29;17.90;99.90
19906;DHT22;10115;50.906;4.438;2023-07-31T14:34:55;17.80;99.90
19906;DHT22;10115;50.906;4.438;2023-07-31T14:37:21;17.90;99.90
19906;DHT22;10115;50.906;4.438;2023-07-31T14:39:46;17.90;99.90
19906;DHT22;10115;50.906;4.438;2023-07-31T14:42:12;17.90;99.90
19906;DHT22;10115;50.906;4.438;2023-07-31T14:44:38;17.90;99.90
19906;DHT22;10115;50.906;4.438;2023-07-31T14:47:04;17.90;99.90
19906;DHT22;10115;50.906;4.438;2023-07-31T14:49:29;17.90;99.90
19906;DHT22;10115;50.906;4.438;2023-07-31T14:51:55;17.80;99.90
19906;DHT22;10115;50.906;4.438;2023-07-31T14:54:21;17.70;99.90
19906;DHT22;10115;50.906;4.438;2023-07-31T14:56:46;17.80;99.90
19906;DHT22;10115;50.906;4.438;2023-07-31T14:59:12;17.80;99.90
19906;DHT22;10115;50.906;4.438;2023-07-31T15:01:38;17.80;99.90
19906;DHT22;10115;50.906;4.438;2023-07-31T15:04:04;17.80;99.90
19906;DHT22;10115;50.906;4.438;2023-07-31T15:06:29;17.80;99.90
19906;DHT22;10115;50.906;4.438;2023-07-31T15:08:55;17.70;99.90
19906;DHT22;10115;50.906;4.438;2023-07-31T15:11:21;17.80;99.90
19906;DHT22;10115;50.906;4.438;2023-07-31T15:13:46;17.80;99.90
19906;DHT22;10115;50.906;4.438;2023-07-31T15:16:12;17.80;99.90
19906;DHT22;10115;50.906;4.438;2023-07-31T15:18:38;17.80;99.90
19906;DHT22;10115;50.906;4.438;2023-07-31T15:21:04;17.70;99.90
19906;DHT22;10115;50.906;4.438;2023-07-31T15:23:31;17.70;99.90
19906;DHT22;10115;50.906;4.438;2023-07-31T15:25:56;17.70;99.90
19906;DHT22;10115;50.906;4.438;2023-07-31T15:28:22;17.70;99.90
19906;DHT22;10115;50.906;4.438;2023-07-31T15:30:48;17.80;99.90
19906;DHT22;10115;50.906;4.438;2023-07-31T15:33:14;17.70;99.90
19906;DHT22;10115;50.906;4.438;2023-07-31T15:35:40;17.80;99.90
19906;DHT22;10115;50.906;4.438;2023-07-31T15:38:06;17.70;99.90